Time;durP1;ratioP1;P1;durP2;ratioP2;P2;SDS_P1;SDS_P2;PMS_P1;PMS_P2;Temp;Humidity;BMP_temperature;BMP_pressure;BME280_temperature;BME280_humidity;BME280_pressure;Samples;Min_cycle;Max_cycle;Signal;HPM_P1;HPM_P2
2024/01/03 00:02:58;;;;;;;;;;;;;;;10.52;76.83;98353.00;4957621;28;19937;-68
2024/01/03 00:06:02;;;;;;;;;;;;;;;10.52;76.88;98347.78;4957943;28;19920;-68
2024/01/03 00:09:07;;;;;;;;;;;;;;;10.51;76.61;98353.97;4956386;28;19992;-68
2024/01/03 00:12:15;;;;;;;;;;;;;;;10.52;76.49;98358.25;4955264;28;19929;-68
2024/01/03 00:15:34;;;;;;;;;;;;;;;10.46;76.87;98352.59;4956069;28;20270;-68
2024/01/03 00:18:39;;;;;;;;;;;;;;;10.52;76.74;98332.13;4957934;28;19950;-68
2024/01/03 00:21:42;;;;;;;;;;;;;;;10.63;76.76;98348.53;4943465;29;20369;-68
2024/01/03 00:24:49;;;;;;;;;;;;;;;10.47;77.15;98354.25;4956703;28;20416;-68
2024/01/03 00:27:52;;;;;;;;;;;;;;;10.50;76.67;98349.69;4957629;28;19981;-68
2024/01/03 00:31:19;;;;;;;;;;;;;;;10.49;77.31;98354.09;4958562;28;20047;-68
2024/01/03 00:34:22;;;;;;;;;;;;;;;10.46;77.37;98351.75;4946153;28;19921;-68
2024/01/03 00:37:29;;;;;;;;;;;;;;;10.51;77.58;98352.19;4944709;28;20035;-68
2024/01/03 00:40:36;;;;;;;;;;;;;;;10.52;76.84;98334.72;4959504;28;19922;-68
2024/01/03 00:43:40;;;;;;;;;;;;;;;10.49;78.06;98348.88;4945759;29;20358;-68
2024/01/03 00:46:43;;;;;;;;;;;;;;;10.39;80.97;98413.34;4959106;28;19924;-68
2024/01/03 00:49:46;;;;;;;;;;;;;;;9.81;82.20;98420.81;4958178;28;20413;-68
2024/01/03 00:52:49;;;;;;;;;;;;;;;9.39;84.45;98411.16;4959336;28;19936;-68
2024/01/03 00:55:53;;;;;;;;;;;;;;;9.45;89.39;98405.44;4958124;28;19922;-68
2024/01/03 00:58:56;;;;;;;;;;;;;;;9.43;89.94;98404.72;4958874;28;19976;-68
2024/01/03 01:02:00;;;;;;;;;;;;;;;9.61;92.04;98419.84;4958091;28;20008;-68
2024/01/03 01:05:04;;;;;;;;;;;;;;;9.70;90.78;98411.22;4956123;28;19921;-67
2024/01/03 01:08:07;;;;;;;;;;;;;;;9.63;91.42;98410.91;4946232;29;19994;-68
2024/01/03 01:11:11;;;;;;;;;;;;;;;9.66;91.68;98420.28;4941440;28;20009;-68
2024/01/03 01:14:14;;;;;;;;;;;;;;;9.64;91.08;98419.59;4956073;28;20013;-68
2024/01/03 01:17:19;;;;;;;;;;;;;;;9.85;91.72;98409.97;4944700;28;20120;-69
2024/01/03 01:20:23;;;;;;;;;;;;;;;10.05;91.05;98417.91;4945269;28;20006;-69
2024/01/03 01:23:26;;;;;;;;;;;;;;;10.11;91.32;98418.22;4945503;28;20016;-68
2024/01/03 01:26:29;;;;;;;;;;;;;;;10.22;91.78;98417.34;4958478;28;20306;-68
2024/01/03 01:29:33;;;;;;;;;;;;;;;10.24;91.60;98412.81;4956774;28;19926;-66
2024/01/03 01:32:36;;;;;;;;;;;;;;;10.04;91.10;98417.09;4958969;28;19969;-66
2024/01/03 01:35:39;;;;;;;;;;;;;;;10.10;89.88;98421.00;4955358;28;19962;-66
2024/01/03 01:38:44;;;;;;;;;;;;;;;10.17;88.15;98436.00;4957976;28;20014;-67
2024/01/03 01:41:47;;;;;;;;;;;;;;;10.20;85.20;98416.63;4956057;28;19920;-67
2024/01/03 01:44:50;;;;;;;;;;;;;;;10.26;86.10;98426.59;4955562;28;19937;-67
2024/01/03 01:47:53;;;;;;;;;;;;;;;10.18;83.90;98422.00;4956753;28;19966;-67
2024/01/03 01:50:56;;;;;;;;;;;;;;;10.19;83.48;98430.66;4955330;28;19921;-67
2024/01/03 01:54:00;;;;;;;;;;;;;;;10.18;83.53;98424.63;4956984;28;20305;-67
2024/01/03 01:57:03;;;;;;;;;;;;;;;10.21;83.38;98421.75;4949913;28;19969;-66
2024/01/03 02:00:07;;;;;;;;;;;;;;;10.24;82.60;98418.03;4955295;28;19921;-66
2024/01/03 02:03:16;;;;;;;;;;;;;;;10.23;82.95;98417.22;4956680;28;20002;-67
2024/01/03 02:06:20;;;;;;;;;;;;;;;10.19;82.07;98434.09;4939802;29;20340;-67
2024/01/03 02:09:23;;;;;;;;;;;;;;;10.25;81.63;98427.53;4954838;28;19926;-66
2024/01/03 02:12:29;;;;;;;;;;;;;;;10.26;81.07;98426.59;4957203;28;20079;-66
2024/01/03 02:15:32;;;;;;;;;;;;;;;10.26;80.78;98455.34;4955804;28;20046;-67
2024/01/03 02:18:42;;;;;;;;;;;;;;;10.22;80.48;98439.06;4957557;28;19925;-67
2024/01/03 02:21:45;;;;;;;;;;;;;;;10.23;80.16;98438.09;4954590;28;19997;-66
2024/01/03 02:24:49;;;;;;;;;;;;;;;10.22;79.92;98452.13;4949189;28;20073;-66
2024/01/03 02:27:51;;;;;;;;;;;;;;;10.24;79.01;98421.50;4955514;28;19928;-67
2024/01/03 02:30:55;;;;;;;;;;;;;;;10.19;79.41;98441.13;4958405;28;20293;-66
2024/01/03 02:33:58;;;;;;;;;;;;;;;10.21;79.57;98429.59;4956902;28;20378;-66
2024/01/03 02:37:02;;;;;;;;;;;;;;;10.18;79.38;98444.69;4956937;28;20009;-67
2024/01/03 02:40:05;;;;;;;;;;;;;;;10.23;79.16;98426.84;4955263;28;19924;-67
2024/01/03 02:43:08;;;;;;;;;;;;;;;10.16;80.10;98442.19;4955721;28;19991;-66
2024/01/03 02:46:12;;;;;;;;;;;;;;;10.16;79.76;98431.75;4951567;28;19961;-66
2024/01/03 02:49:14;;;;;;;;;;;;;;;10.14;79.48;98430.22;4956025;28;19928;-66
2024/01/03 02:52:17;;;;;;;;;;;;;;;10.17;79.35;98443.00;4956334;28;19966;-66
2024/01/03 02:55:21;;;;;;;;;;;;;;;10.19;79.08;98443.72;4957138;28;19976;-66
2024/01/03 03:03:09;;;;;;;;;;;;;;;10.19;78.32;98431.50;4955919;28;19921;-67
2024/01/03 03:06:11;;;;;;;;;;;;;;;10.16;78.69;98436.16;4953488;28;20094;-67
2024/01/03 03:09:14;;;;;;;;;;;;;;;10.16;78.71;98436.16;4953740;28;20845;-67
2024/01/03 03:12:17;;;;;;;;;;;;;;;10.21;78.70;98441.78;4954317;28;20377;-66
2024/01/03 03:15:20;;;;;;;;;;;;;;;10.22;78.99;98440.84;4954926;28;19921;-67
2024/01/03 03:18:23;;;;;;;;;;;;;;;10.15;78.71;98437.13;4954667;28;19926;-66
2024/01/03 03:21:26;;;;;;;;;;;;;;;10.18;78.76;98440.28;4953007;28;19937;-66
2024/01/03 03:24:29;;;;;;;;;;;;;;;10.23;78.56;98443.31;4950375;28;20005;-66
2024/01/03 03:27:32;;;;;;;;;;;;;;;10.20;78.57;98447.97;4953712;28;19926;-66
2024/01/03 03:30:35;;;;;;;;;;;;;;;10.23;77.86;98458.19;4953475;28;20298;-67
2024/01/03 03:33:39;;;;;;;;;;;;;;;10.29;77.54;98446.41;4954840;28;20278;-66
2024/01/03 03:36:42;;;;;;;;;;;;;;;10.28;77.09;98448.22;4954377;28;20366;-69
2024/01/03 03:39:45;;;;;;;;;;;;;;;10.31;77.28;98462.81;4952335;28;20451;-68
2024/01/03 03:42:49;;;;;;;;;;;;;;;10.29;77.17;98449.03;4953025;28;19978;-67
2024/01/03 03:45:51;;;;;;;;;;;;;;;10.21;77.50;98439.19;4947755;28;20405;-68
2024/01/03 03:48:54;;;;;;;;;;;;;;;10.20;77.85;98442.75;4949869;28;19931;-67
2024/01/03 03:51:57;;;;;;;;;;;;;;;10.19;77.40;98446.34;4953746;28;19921;-68
2024/01/03 03:55:00;;;;;;;;;;;;;;;10.24;76.50;98449.38;4954170;28;20326;-67
2024/01/03 03:58:04;;;;;;;;;;;;;;;10.20;75.82;98447.97;4954533;28;19968;-68
2024/01/03 04:01:07;;;;;;;;;;;;;;;10.18;76.25;98445.50;4952215;28;19921;-69
2024/01/03 04:04:10;;;;;;;;;;;;;;;10.15;76.17;98455.41;4952735;28;19920;-69
2024/01/03 04:07:13;;;;;;;;;;;;;;;10.14;75.67;98462.38;4952936;28;20388;-69
2024/01/03 04:10:16;;;;;;;;;;;;;;;10.17;75.52;98474.34;4953560;28;19968;-68
2024/01/03 04:13:19;;;;;;;;;;;;;;;10.14;75.71;98475.44;4957111;28;19937;-69
2024/01/03 04:16:22;;;;;;;;;;;;;;;10.15;75.75;98471.06;4951569;28;19968;-69
2024/01/03 04:19:25;;;;;;;;;;;;;;;10.08;76.53;98470.72;4954404;28;19925;-68
2024/01/03 04:22:28;;;;;;;;;;;;;;;10.09;76.62;98476.78;4952302;28;20281;-66
2024/01/03 04:25:30;;;;;;;;;;;;;;;10.11;77.19;98491.34;4953762;28;19920;-67
2024/01/03 04:28:33;;;;;;;;;;;;;;;10.12;76.86;98471.31;4952992;28;20418;-66
2024/01/03 04:31:36;;;;;;;;;;;;;;;10.10;77.36;98466.22;4954572;28;19922;-66
2024/01/03 04:34:40;;;;;;;;;;;;;;;10.08;77.70;98478.53;4955292;28;20350;-66
2024/01/03 04:37:43;;;;;;;;;;;;;;;10.09;77.48;98492.47;4950394;28;20051;-66
2024/01/03 04:40:46;;;;;;;;;;;;;;;10.08;77.59;98483.78;4957942;28;19922;-66
2024/01/03 04:43:49;;;;;;;;;;;;;;;10.07;77.82;98482.13;4950658;28;20294;-66
2024/01/03 04:46:52;;;;;;;;;;;;;;;10.13;77.67;98484.22;4956219;28;19973;-66
2024/01/03 04:49:55;;;;;;;;;;;;;;;10.11;77.84;98490.53;4951153;28;19929;-67
2024/01/03 04:52:59;;;;;;;;;;;;;;;10.11;77.72;98475.69;4956806;28;19921;-66
2024/01/03 04:56:02;;;;;;;;;;;;;;;10.14;77.22;98491.09;4954045;28;19938;-67
2024/01/03 04:59:05;;;;;;;;;;;;;;;10.16;77.20;98481.38;4957957;28;19937;-66
2024/01/03 05:02:08;;;;;;;;;;;;;;;10.14;77.27;98472.81;4958002;28;19922;-66
2024/01/03 05:05:11;;;;;;;;;;;;;;;10.17;77.33;98479.56;4955637;28;19921;-67
2024/01/03 05:08:15;;;;;;;;;;;;;;;10.14;77.07;98472.00;4955768;28;19929;-66
2024/01/03 05:11:18;;;;;;;;;;;;;;;10.18;76.42;98482.06;4954363;28;20013;-66
2024/01/03 05:14:20;;;;;;;;;;;;;;;10.20;76.45;98477.53;4956963;28;20042;-66
2024/01/03 05:17:23;;;;;;;;;;;;;;;10.23;76.02;98458.19;4957852;28;19921;-66
2024/01/03 05:20:26;;;;;;;;;;;;;;;10.28;75.59;98482.16;4957361;28;19969;-66
2024/01/03 05:23:29;;;;;;;;;;;;;;;10.29;75.88;98501.28;4958566;28;20333;-66
2024/01/03 05:26:32;;;;;;;;;;;;;;;10.30;75.64;98485.47;4955488;28;20326;-66
2024/01/03 05:29:35;;;;;;;;;;;;;;;10.36;75.36;98482.34;4960450;28;19973;-66
2024/01/03 05:32:38;;;;;;;;;;;;;;;10.36;75.36;98477.13;4956173;28;20278;-66
2024/01/03 05:35:41;;;;;;;;;;;;;;;10.36;75.63;98508.47;4958388;28;19968;-66
2024/01/03 05:38:44;;;;;;;;;;;;;;;10.42;75.53;98489.66;4956877;28;20085;-66
2024/01/03 05:41:47;;;;;;;;;;;;;;;10.38;75.65;98500.50;4947850;28;19921;-66
2024/01/03 05:44:50;;;;;;;;;;;;;;;10.35;76.18;98493.75;4957414;28;20401;-66
2024/01/03 05:47:53;;;;;;;;;;;;;;;10.30;76.56;98479.41;4948755;28;19926;-66
2024/01/03 05:50:56;;;;;;;;;;;;;;;10.27;77.01;98506.59;4957106;28;19957;-67
2024/01/03 05:53:58;;;;;;;;;;;;;;;10.30;76.54;98502.91;4951653;28;19961;-67
2024/01/03 05:57:02;;;;;;;;;;;;;;;10.32;76.44;98483.56;4956452;28;19981;-66
2024/01/03 06:00:05;;;;;;;;;;;;;;;10.25;76.66;98488.44;4953513;28;19925;-66
2024/01/03 06:03:09;;;;;;;;;;;;;;;10.26;76.83;98484.06;4956554;28;20441;-66
2024/01/03 06:06:12;;;;;;;;;;;;;;;10.22;77.11;98483.47;4954638;28;19921;-66
2024/01/03 06:09:15;;;;;;;;;;;;;;;10.28;77.30;98487.38;4954986;28;20005;-67
2024/01/03 06:12:19;;;;;;;;;;;;;;;10.29;77.13;98504.72;4955381;28;19922;-67
2024/01/03 06:15:22;;;;;;;;;;;;;;;10.22;77.91;98508.75;4956358;28;19921;-67
2024/01/03 06:18:26;;;;;;;;;;;;;;;10.18;78.51;98507.38;4956067;28;20471;-67
2024/01/03 06:21:28;;;;;;;;;;;;;;;10.18;78.83;98502.16;4957765;28;19928;-67
2024/01/03 06:24:31;;;;;;;;;;;;;;;10.13;79.47;98496.47;4956851;28;19937;-67
2024/01/03 06:27:34;;;;;;;;;;;;;;;10.11;79.85;98498.38;4957178;28;19922;-67
2024/01/03 06:30:37;;;;;;;;;;;;;;;10.08;80.26;98499.44;4954930;28;19922;-67
2024/01/03 06:37:56;;;;;;;;;;;;;;;10.02;80.83;98524.28;4952243;28;20326;-67
2024/01/03 06:40:59;;;;;;;;;;;;;;;10.09;80.59;98513.34;4953819;28;19965;-69
2024/01/03 06:44:02;;;;;;;;;;;;;;;10.19;80.37;98522.06;4953661;28;19929;-68
2024/01/03 06:47:05;;;;;;;;;;;;;;;10.19;80.03;98519.47;4948777;28;19925;-68
2024/01/03 06:50:08;;;;;;;;;;;;;;;10.23;79.87;98520.84;4955970;28;19925;-69
2024/01/03 06:53:11;;;;;;;;;;;;;;;10.15;80.42;98521.50;4955388;28;19926;-68
2024/01/03 06:56:23;;;;;;;;;;;;;;;10.15;80.83;98518.06;4954149;28;20112;-68
2024/01/03 06:59:26;;;;;;;;;;;;;;;10.18;81.52;98492.53;4958664;28;19942;-67
2024/01/03 07:02:29;;;;;;;;;;;;;;;10.13;82.81;98510.34;4953772;28;20394;-67
2024/01/03 07:05:32;;;;;;;;;;;;;;;10.22;83.59;98500.94;4940547;29;20314;-67
2024/01/03 07:08:35;;;;;;;;;;;;;;;10.10;84.04;98494.09;4953784;28;19973;-70
2024/01/03 07:11:38;;;;;;;;;;;;;;;10.06;84.43;98509.19;4952684;28;19920;-68
2024/01/03 07:14:41;;;;;;;;;;;;;;;10.05;84.55;98506.69;4953437;28;19922;-68
2024/01/03 07:17:44;;;;;;;;;;;;;;;10.10;85.20;98518.44;4953707;28;20408;-68
2024/01/03 07:20:47;;;;;;;;;;;;;;;10.16;85.36;98504.03;4954299;28;19925;-67
2024/01/03 07:23:50;;;;;;;;;;;;;;;10.26;85.83;98499.75;4955251;28;19990;-68
2024/01/03 07:26:54;;;;;;;;;;;;;;;10.38;86.14;98509.19;4955887;28;20282;-68
2024/01/03 07:29:57;;;;;;;;;;;;;;;10.21;86.98;98507.09;4952619;28;19945;-68
2024/01/03 07:32:59;;;;;;;;;;;;;;;10.27;87.12;98518.84;4951403;28;19921;-68
2024/01/03 07:36:03;;;;;;;;;;;;;;;10.22;87.09;98520.03;4954590;28;20294;-68
2024/01/03 07:39:07;;;;;;;;;;;;;;;9.95;86.99;98517.91;4954813;28;19937;-68
2024/01/03 07:42:10;;;;;;;;;;;;;;;10.11;87.72;98521.88;4955007;28;19969;-68
2024/01/03 07:45:13;;;;;;;;;;;;;;;9.94;90.14;98542.34;4955725;28;19921;-68
2024/01/03 07:48:16;;;;;;;;;;;;;;;9.80;91.13;98532.22;4955259;28;20401;-68
2024/01/03 07:51:19;;;;;;;;;;;;;;;9.83;91.17;98529.34;4952609;28;20043;-68
2024/01/03 07:54:22;;;;;;;;;;;;;;;9.93;91.16;98517.22;4953910;28;19967;-68
2024/01/03 07:57:25;;;;;;;;;;;;;;;10.10;91.21;98521.03;4954625;28;20289;-69
2024/01/03 08:00:31;;;;;;;;;;;;;;;10.13;90.54;98520.78;4950698;28;19929;-68
2024/01/03 08:03:34;;;;;;;;;;;;;;;10.11;89.11;98514.03;4956197;28;19957;-68
2024/01/03 08:06:38;;;;;;;;;;;;;;;10.14;88.99;98500.72;4949140;28;19921;-68
2024/01/03 08:09:41;;;;;;;;;;;;;;;9.97;89.24;98500.34;4957680;28;20293;-69
2024/01/03 08:12:44;;;;;;;;;;;;;;;9.93;91.59;98498.94;4956817;28;19921;-68
2024/01/03 08:15:47;;;;;;;;;;;;;;;9.84;92.29;98498.84;4957571;28;19925;-68
2024/01/03 08:18:50;;;;;;;;;;;;;;;9.87;92.00;98498.63;4957802;28;19929;-67
2024/01/03 08:21:54;;;;;;;;;;;;;;;9.69;93.34;98495.69;4951083;28;20385;-68
2024/01/03 08:24:57;;;;;;;;;;;;;;;9.76;93.01;98486.41;4956010;28;19988;-67
2024/01/03 08:28:00;;;;;;;;;;;;;;;9.88;91.91;98480.19;4944180;28;19925;-71
2024/01/03 08:31:03;;;;;;;;;;;;;;;9.91;91.69;98474.72;4956715;28;19933;-67
2024/01/03 08:34:06;;;;;;;;;;;;;;;10.00;91.49;98486.19;4957018;28;19941;-67
2024/01/03 08:37:09;;;;;;;;;;;;;;;10.15;90.28;98498.00;4954413;28;19922;-66
2024/01/03 08:40:12;;;;;;;;;;;;;;;10.11;88.70;98465.25;4957954;28;19949;-66
2024/01/03 08:43:15;;;;;;;;;;;;;;;10.10;88.77;98466.22;4955428;28;20437;-68
2024/01/03 08:46:18;;;;;;;;;;;;;;;10.19;86.97;98472.44;4942710;29;20006;-68
2024/01/03 08:49:21;;;;;;;;;;;;;;;10.17;84.57;98469.97;4956503;29;19925;-68
2024/01/03 08:52:24;;;;;;;;;;;;;;;10.29;84.72;98457.69;4956239;28;19964;-68
2024/01/03 08:55:26;;;;;;;;;;;;;;;10.33;84.21;98440.78;4956186;29;19969;-68
2024/01/03 08:58:29;;;;;;;;;;;;;;;10.31;83.03;98463.63;4956048;29;19977;-68
2024/01/03 09:01:35;;;;;;;;;;;;;;;10.41;82.59;98467.13;4954583;29;19917;-69
2024/01/03 09:04:38;;;;;;;;;;;;;;;10.41;81.40;98497.66;4955826;29;19968;-69
2024/01/03 09:07:42;;;;;;;;;;;;;;;10.41;81.16;98492.41;4955533;28;20004;-67
2024/01/03 09:10:45;;;;;;;;;;;;;;;10.38;81.10;98483.06;4956345;29;19922;-68
2024/01/03 09:13:51;;;;;;;;;;;;;;;10.44;80.69;98534.78;4949333;28;19944;-69
2024/01/03 09:16:54;;;;;;;;;;;;;;;10.50;78.49;98517.78;4952118;29;19922;-68
2024/01/03 09:19:57;;;;;;;;;;;;;;;10.57;78.55;98536.38;4954774;28;20032;-70
2024/01/03 09:23:02;;;;;;;;;;;;;;;10.75;77.08;98537.41;4942453;28;19925;-70
2024/01/03 09:26:30;;;;;;;;;;;;;;;10.71;77.28;98551.72;4953677;28;19949;-70
2024/01/03 09:29:58;;;;;;;;;;;;;;;10.58;77.16;98535.41;4950563;29;19925;-70
2024/01/03 09:33:01;;;;;;;;;;;;;;;10.62;76.87;98555.09;4950550;29;19957;-70
2024/01/03 09:36:19;;;;;;;;;;;;;;;10.60;77.15;98549.19;4952158;29;19965;-75
2024/01/03 09:39:22;;;;;;;;;;;;;;;10.65;77.12;98557.47;4954416;29;20018;-72
2024/01/03 09:42:25;;;;;;;;;;;;;;;10.54;77.54;98584.50;4951160;29;19925;-69
2024/01/03 09:45:29;;;;;;;;;;;;;;;10.44;79.37;98579.22;4946237;29;19921;-71
2024/01/03 09:48:32;;;;;;;;;;;;;;;10.37;80.38;98572.84;4952301;28;20385;-74
2024/01/03 09:51:35;;;;;;;;;;;;;;;10.38;81.32;98587.56;4955489;28;19932;-71
2024/01/03 09:54:39;;;;;;;;;;;;;;;10.45;81.63;98574.81;4955664;28;19969;-70
2024/01/03 09:57:43;;;;;;;;;;;;;;;10.44;80.47;98579.22;4955164;28;20286;-71
2024/01/03 10:00:53;;;;;;;;;;;;;;;10.59;80.66;98578.88;4957069;28;19920;-71
2024/01/03 10:03:58;;;;;;;;;;;;;;;10.58;80.16;98587.69;4955536;28;19922;-69
2024/01/03 10:07:06;;;;;;;;;;;;;;;10.68;79.32;98588.56;4955423;28;19962;-66
2024/01/03 10:10:14;;;;;;;;;;;;;;;10.67;79.24;98592.97;4951118;29;19925;-70
2024/01/03 10:13:27;;;;;;;;;;;;;;;10.66;77.89;98595.72;4951199;28;19930;-71
2024/01/03 10:16:44;;;;;;;;;;;;;;;10.78;78.12;98589.44;4951510;28;19937;-70
2024/01/03 10:19:56;;;;;;;;;;;;;;;10.70;76.96;98608.41;4955085;28;19926;-70
2024/01/03 10:23:12;;;;;;;;;;;;;;;10.62;76.67;98594.31;4947958;28;19985;-70
2024/01/03 10:26:34;;;;;;;;;;;;;;;10.52;78.43;98594.25;4953246;28;20035;-68
2024/01/03 10:29:42;;;;;;;;;;;;;;;10.28;81.04;98604.94;4955427;28;19973;-68
2024/01/03 10:33:02;;;;;;;;;;;;;;;9.82;84.54;98616.44;4953727;28;19981;-69
2024/01/03 10:36:36;;;;;;;;;;;;;;;9.60;85.08;98613.84;4947944;28;20288;-68
2024/01/03 10:39:42;;;;;;;;;;;;;;;9.41;86.79;98620.53;4951411;29;19920;-70
2024/01/03 10:43:43;;;;;;;;;;;;;;;9.28;89.20;98617.19;4956986;28;19922;-70
2024/01/03 10:46:45;;;;;;;;;;;;;;;9.28;90.53;98627.63;4880803;29;19920;-70
2024/01/03 10:49:49;;;;;;;;;;;;;;;9.23;90.52;98628.00;4951786;28;19925;-68
2024/01/03 10:52:55;;;;;;;;;;;;;;;9.21;92.13;98605.59;4953068;28;19945;-68
2024/01/03 10:56:01;;;;;;;;;;;;;;;9.34;94.03;98608.91;4942465;28;20057;-69
2024/01/03 10:59:05;;;;;;;;;;;;;;;9.50;96.58;98613.75;4955196;28;20465;-69
2024/01/03 11:02:21;;;;;;;;;;;;;;;9.54;95.01;98602.97;4953820;28;19921;-70
2024/01/03 11:05:33;;;;;;;;;;;;;;;9.74;95.28;98611.81;4950602;28;19937;-69
2024/01/03 11:08:48;;;;;;;;;;;;;;;9.83;96.01;98606.81;4956113;28;20462;-69
2024/01/03 11:12:04;;;;;;;;;;;;;;;9.75;94.19;98604.81;4951558;28;20012;-69
2024/01/03 11:15:26;;;;;;;;;;;;;;;9.67;92.06;98579.34;4951561;28;19921;-69
2024/01/03 11:18:42;;;;;;;;;;;;;;;9.76;91.79;98588.19;4949740;28;19951;-69
2024/01/03 11:21:49;;;;;;;;;;;;;;;9.80;91.97;98587.03;4955263;28;19957;-69
2024/01/03 11:24:53;;;;;;;;;;;;;;;9.93;89.87;98592.09;4949811;28;19921;-69
2024/01/03 11:28:15;;;;;;;;;;;;;;;10.04;89.39;98599.06;4953268;28;19925;-70
2024/01/03 11:31:38;;;;;;;;;;;;;;;10.13;84.60;98599.13;4954257;28;19961;-68
2024/01/03 11:34:42;;;;;;;;;;;;;;;10.21;84.59;98586.28;4951852;28;19928;-69
2024/01/03 11:37:46;;;;;;;;;;;;;;;10.23;81.87;98586.16;4953863;28;19925;-68
2024/01/03 11:40:50;;;;;;;;;;;;;;;10.32;82.46;98575.00;4952108;28;19941;-68
2024/01/03 11:43:54;;;;;;;;;;;;;;;10.44;79.88;98584.44;4950325;28;20024;-68
2024/01/03 11:47:22;;;;;;;;;;;;;;;10.51;79.76;98576.91;4951268;28;19969;-68
2024/01/03 11:50:32;;;;;;;;;;;;;;;10.68;78.33;98572.88;4952251;28;19975;-69
2024/01/03 11:53:36;;;;;;;;;;;;;;;10.71;79.33;98562.16;4952435;28;19937;-68
2024/01/03 11:56:39;;;;;;;;;;;;;;;10.68;79.70;98573.72;4952876;28;20049;-69
2024/01/03 11:59:45;;;;;;;;;;;;;;;10.56;80.24;98569.53;4949548;28;19937;-69
2024/01/03 12:02:53;;;;;;;;;;;;;;;10.59;78.54;98579.72;4949165;28;19969;-69
2024/01/03 12:05:57;;;;;;;;;;;;;;;10.59;79.52;98560.59;4953376;28;19937;-70
2024/01/03 12:09:02;;;;;;;;;;;;;;;10.67;80.06;98553.75;4951225;28;20000;-70
2024/01/03 12:12:06;;;;;;;;;;;;;;;10.73;78.55;98559.44;4954389;28;20389;-70
2024/01/03 12:15:19;;;;;;;;;;;;;;;10.67;78.35;98552.94;4949212;28;19925;-70
2024/01/03 12:18:25;;;;;;;;;;;;;;;10.74;79.90;98546.22;4951189;28;19928;-71
2024/01/03 12:21:28;;;;;;;;;;;;;;;10.75;78.31;98547.06;4950129;28;19920;-70
2024/01/03 12:24:37;;;;;;;;;;;;;;;10.80;78.48;98543.09;4951407;28;20299;-70
2024/01/03 12:27:40;;;;;;;;;;;;;;;10.79;78.87;98549.28;4950344;28;21367;-70
2024/01/03 12:30:43;;;;;;;;;;;;;;;10.85;76.41;98538.31;4936817;29;19921;-75
2024/01/03 12:33:46;;;;;;;;;;;;;;;10.99;76.30;98544.16;4943123;29;19921;-70
2024/01/03 12:37:15;;;;;;;;;;;;;;;11.17;74.06;98540.78;4953032;29;19922;-71
2024/01/03 12:40:18;;;;;;;;;;;;;;;11.30;73.41;98537.94;4952515;29;20010;-70
2024/01/03 12:43:21;;;;;;;;;;;;;;;11.37;75.36;98528.59;4952878;29;20035;-70
2024/01/03 12:46:24;;;;;;;;;;;;;;;11.33;74.96;98521.97;4953028;29;20098;-68
2024/01/03 12:49:27;;;;;;;;;;;;;;;11.32;74.08;98520.31;4952027;29;19934;-70
2024/01/03 12:52:30;;;;;;;;;;;;;;;11.21;73.32;98522.22;4951457;29;19937;-73
2024/01/03 12:55:33;;;;;;;;;;;;;;;11.16;71.90;98526.03;4953412;28;19921;-70
2024/01/03 13:02:04;;;;;;;;;;;;;;;11.26;72.63;98523.44;4954660;29;20004;-68
2024/01/03 13:05:07;;;;;;;;;;;;;;;11.24;71.77;98533.25;4925546;29;19964;-69
2024/01/03 13:08:10;;;;;;;;;;;;;;;11.14;71.36;98525.38;4948784;29;19981;-69
2024/01/03 13:11:14;;;;;;;;;;;;;;;11.30;71.62;98521.41;4956539;29;19937;-69
2024/01/03 13:14:20;;;;;;;;;;;;;;;11.23;71.11;98536.81;4944208;29;19925;-69
2024/01/03 13:17:25;;;;;;;;;;;;;;;11.06;70.77;98525.19;4955743;29;20309;-69
2024/01/03 13:20:28;;;;;;;;;;;;;;;11.00;71.34;98535.34;4955766;28;20046;-69
2024/01/03 13:23:31;;;;;;;;;;;;;;;10.83;72.73;98550.69;4953239;28;19961;-68
2024/01/03 13:26:41;;;;;;;;;;;;;;;10.81;75.66;98531.69;4937130;29;20414;-69
2024/01/03 13:29:44;;;;;;;;;;;;;;;10.61;77.84;98527.31;4936164;29;19947;-69
2024/01/03 13:32:48;;;;;;;;;;;;;;;10.96;81.48;98515.66;4936323;29;19921;-69
2024/01/03 13:35:51;;;;;;;;;;;;;;;10.45;81.21;98519.94;4936474;29;20010;-72
2024/01/03 13:39:00;;;;;;;;;;;;;;;10.34;82.66;98513.00;4936306;29;19921;-69
2024/01/03 13:42:15;;;;;;;;;;;;;;;10.36;84.39;98505.84;4937239;29;19922;-68
2024/01/03 13:45:28;;;;;;;;;;;;;;;10.16;85.11;98511.88;4937110;29;19930;-68
2024/01/03 13:48:41;;;;;;;;;;;;;;;10.14;86.65;98505.94;4936675;29;19926;-68
2024/01/03 13:51:44;;;;;;;;;;;;;;;10.30;86.98;98506.34;4937001;29;20013;-67
2024/01/03 13:54:47;;;;;;;;;;;;;;;10.32;88.35;98496.63;4936643;29;19937;-69
2024/01/03 14:01:47;;;;;;;;;;;;;;;10.37;88.79;98497.06;4936295;29;19922;-68
2024/01/03 14:04:51;;;;;;;;;;;;;;;10.63;87.01;98481.81;4936658;29;19921;-68
2024/01/03 14:07:55;;;;;;;;;;;;;;;10.38;88.17;98483.06;4935344;29;19925;-68
2024/01/03 14:11:01;;;;;;;;;;;;;;;10.52;88.00;98478.44;4936608;29;19976;-68
2024/01/03 14:14:04;;;;;;;;;;;;;;;10.59;88.39;98464.75;4936174;29;19996;-68
2024/01/03 14:17:07;;;;;;;;;;;;;;;10.58;87.95;98459.63;4936050;29;20036;-69
2024/01/03 14:20:14;;;;;;;;;;;;;;;10.69;88.79;98464.78;4935872;29;19929;-69
2024/01/03 14:23:20;;;;;;;;;;;;;;;10.67;88.92;98456.22;4936435;29;19922;-69
2024/01/03 14:26:25;;;;;;;;;;;;;;;10.62;87.33;98453.19;4936085;29;20346;-69
2024/01/03 14:29:30;;;;;;;;;;;;;;;10.75;87.40;98453.78;4935897;29;19977;-69
2024/01/03 14:32:33;;;;;;;;;;;;;;;10.67;86.03;98451.00;4936194;29;19921;-68
2024/01/03 14:35:35;;;;;;;;;;;;;;;10.71;85.31;98457.63;4935636;29;20394;-70
2024/01/03 14:38:39;;;;;;;;;;;;;;;10.62;84.88;98458.41;4936487;29;20005;-69
2024/01/03 14:41:49;;;;;;;;;;;;;;;10.43;85.62;98454.75;4936261;29;20028;-70
2024/01/03 14:44:53;;;;;;;;;;;;;;;10.54;84.70;98447.78;4935868;29;19921;-69
2024/01/03 14:47:56;;;;;;;;;;;;;;;10.72;83.87;98443.63;4923722;29;20402;-69
2024/01/03 14:51:06;;;;;;;;;;;;;;;10.84;82.04;98444.31;4924292;29;19922;-68
2024/01/03 14:54:09;;;;;;;;;;;;;;;10.74;80.04;98428.59;4934973;29;19921;-70
2024/01/03 14:57:11;;;;;;;;;;;;;;;10.70;81.32;98442.91;4945588;29;19961;-69
2024/01/03 15:00:15;;;;;;;;;;;;;;;10.79;81.29;98428.22;4943920;29;19929;-69
2024/01/03 15:03:19;;;;;;;;;;;;;;;10.68;80.08;98442.19;4942325;29;19960;-70
2024/01/03 15:06:22;;;;;;;;;;;;;;;10.68;81.01;98444.81;4943486;29;19922;-70
2024/01/03 15:09:31;;;;;;;;;;;;;;;10.52;80.83;98442.69;4945807;29;19925;-70
2024/01/03 15:13:01;;;;;;;;;;;;;;;10.54;80.93;98435.56;4935889;29;19968;-77
2024/01/03 15:16:04;;;;;;;;;;;;;;;10.60;80.12;98436.81;4935253;29;20548;-70
2024/01/03 15:19:07;;;;;;;;;;;;;;;10.61;80.53;98438.47;4934596;29;20334;-74
2024/01/03 15:22:15;;;;;;;;;;;;;;;10.72;79.63;98422.69;4934928;29;19922;-64
2024/01/03 15:25:18;;;;;;;;;;;;;;;10.71;80.63;98427.06;4934693;29;19986;-68
2024/01/03 15:28:21;;;;;;;;;;;;;;;10.71;81.12;98418.41;4934548;29;20145;-67
2024/01/03 15:31:23;;;;;;;;;;;;;;;10.66;80.82;98418.81;4936152;29;19969;-68
2024/01/03 15:34:27;;;;;;;;;;;;;;;10.66;80.67;98418.81;4936103;29;19921;-67
2024/01/03 15:37:31;;;;;;;;;;;;;;;10.75;81.82;98416.34;4936154;29;20299;-67
2024/01/03 15:40:34;;;;;;;;;;;;;;;10.63;79.94;98408.63;4935921;29;19921;-67
2024/01/03 15:43:37;;;;;;;;;;;;;;;10.62;79.46;98419.19;4935764;29;19930;-69
2024/01/03 15:46:41;;;;;;;;;;;;;;;10.63;78.13;98418.25;4935926;29;19921;-67
2024/01/03 15:50:11;;;;;;;;;;;;;;;10.66;77.65;98418.00;4935939;29;20382;-68
2024/01/03 15:53:13;;;;;;;;;;;;;;;10.68;78.30;98419.50;4935748;29;19921;-70
2024/01/03 15:56:16;;;;;;;;;;;;;;;10.67;78.51;98417.03;4936172;29;20013;-68
2024/01/03 15:59:20;;;;;;;;;;;;;;;10.63;80.85;98418.25;4936012;29;19962;-67
2024/01/03 16:02:23;;;;;;;;;;;;;;;10.53;81.56;98428.69;4936261;29;20381;-67
2024/01/03 16:05:26;;;;;;;;;;;;;;;10.30;82.82;98454.13;4935890;29;19921;-68
2024/01/03 16:08:29;;;;;;;;;;;;;;;10.15;86.01;98434.50;4935742;29;19965;-67
2024/01/03 16:11:33;;;;;;;;;;;;;;;9.83;85.39;98464.09;4935768;29;20282;-68
2024/01/03 16:14:36;;;;;;;;;;;;;;;9.66;85.51;98446.38;4935819;29;20390;-68
2024/01/03 16:17:40;;;;;;;;;;;;;;;9.55;86.31;98442.84;4935556;29;19922;-69
2024/01/03 16:20:42;;;;;;;;;;;;;;;9.59;86.50;98440.81;4924179;29;19937;-68
2024/01/03 16:23:46;;;;;;;;;;;;;;;9.50;86.56;98438.97;4935827;29;19941;-68